Time;durP1;ratioP1;P1;durP2;ratioP2;P2;SDS_P1;SDS_P2;PMS_P1;PMS_P2;Temp;Humidity;BMP_temperature;BMP_pressure;BME280_temperature;BME280_humidity;BME280_pressure;Samples;Min_cycle;Max_cycle;Signal;HPM_P1;HPM_P2
2022/01/24 00:02:22;;;;;;;10.70;7.70;;;6.40;99.90;;;;;;5134466;27;20444;-65
2022/01/24 00:04:49;;;;;;;14.75;8.20;;;6.40;99.90;;;;;;5134665;28;20043;-65
2022/01/24 00:07:19;;;;;;;11.63;7.93;;;6.30;99.90;;;;;;5134309;28;20121;-66
2022/01/24 00:09:45;;;;;;;12.15;8.63;;;6.30;99.90;;;;;;5142486;27;20039;-67
2022/01/24 00:12:19;;;;;;;11.98;8.45;;;6.30;99.90;;;;;;5137084;27;20362;-65
2022/01/24 00:28:25;;;;;;;;;;;6.20;99.90;;;;;;5134483;28;20326;-67
2022/01/24 00:30:51;;;;;;;16.70;10.73;;;6.20;99.90;;;;;;5151600;27;19926;-67
2022/01/24 00:33:19;;;;;;;14.57;9.98;;;6.20;99.90;;;;;;5154980;27;20211;-65
2022/01/24 00:35:45;;;;;;;15.48;10.23;;;6.20;99.90;;;;;;5155476;27;20486;-65
2022/01/24 00:38:11;;;;;;;14.50;10.07;;;6.30;99.90;;;;;;5158428;27;20046;-66
2022/01/24 00:40:39;;;;;;;16.02;10.50;;;6.20;99.90;;;;;;5142906;27;20436;-64
2022/01/24 00:43:18;;;;;;;16.75;11.13;;;6.20;99.90;;;;;;5137928;27;20050;-66
2022/01/24 00:49:19;;;;;;;14.07;9.88;;;6.20;99.90;;;;;;5124171;27;20078;-67
2022/01/24 00:56:55;;;;;;;18.27;11.55;;;6.20;99.90;;;;;;5137223;27;20109;-65
2022/01/24 00:59:21;;;;;;;16.17;11.52;;;6.20;99.90;;;;;;5141593;27;20038;-66
2022/01/24 01:01:47;;;;;;;18.13;10.73;;;6.20;99.90;;;;;;5139751;27;20033;-66
2022/01/24 01:04:13;;;;;;;17.08;11.32;;;6.20;99.90;;;;;;5158260;27;20637;-66
2022/01/24 01:06:42;;;;;;;16.33;10.90;;;6.20;99.90;;;;;;5157934;27;20423;-67
2022/01/24 01:20:05;;;;;;;14.40;9.85;;;6.20;99.90;;;;;;5147633;27;20043;-66
2022/01/24 01:22:31;;;;;;;15.70;10.43;;;6.10;99.90;;;;;;5157998;27;20042;-67
2022/01/24 01:24:57;;;;;;;13.00;9.18;;;6.20;99.90;;;;;;5157976;27;20046;-66
2022/01/24 01:27:29;;;;;;;15.13;9.77;;;6.10;99.90;;;;;;5139102;27;20058;-66
2022/01/24 01:30:00;;;;;;;14.55;10.13;;;6.20;99.90;;;;;;5148424;27;20039;-64
2022/01/24 01:36:09;;;;;;;14.30;9.60;;;6.10;99.90;;;;;;5137039;27;20054;-65
2022/01/24 01:56:46;;;;;;;12.27;8.93;;;6.00;99.90;;;;;;5136235;27;20130;-66
2022/01/24 01:59:11;;;;;;;11.98;8.52;;;6.00;99.90;;;;;;5138588;27;20141;-66
2022/01/24 02:01:37;;;;;;;11.40;8.40;;;6.00;99.90;;;;;;5156960;27;20050;-65
2022/01/24 02:04:05;;;;;;;12.23;8.00;;;6.00;99.90;;;;;;5156779;27;20042;-67
2022/01/24 02:06:31;;;;;;;12.43;8.43;;;6.00;99.90;;;;;;5138314;27;20431;-66
2022/01/24 02:09:03;;;;;;;10.38;7.70;;;6.00;99.90;;;;;;5156450;27;20038;-65
2022/01/24 02:11:28;;;;;;;10.35;7.82;;;6.00;99.90;;;;;;5118000;27;20039;-65
2022/01/24 02:13:55;;;;;;;11.13;7.68;;;6.00;99.90;;;;;;5136277;27;20096;-66
2022/01/24 02:19:04;;;;;;;10.93;7.65;;;6.00;99.90;;;;;;5135578;27;20059;-66
2022/01/24 02:24:05;;;;;;;11.18;6.95;;;6.00;99.90;;;;;;5136047;27;20035;-65
2022/01/24 02:26:32;;;;;;;12.27;6.75;;;6.00;99.90;;;;;;5135746;27;20072;-65
2022/01/24 02:31:51;;;;;;;9.13;6.75;;;6.00;99.90;;;;;;5099447;27;20110;-66
2022/01/24 02:34:19;;;;;;;9.15;6.80;;;6.00;99.90;;;;;;5156527;27;20041;-66
2022/01/24 02:36:45;;;;;;;9.48;6.40;;;6.00;99.90;;;;;;5156330;27;20034;-66
2022/01/24 02:40:02;;;;;;;8.80;6.40;;;6.00;99.90;;;;;;5153985;27;20031;-67
2022/01/24 02:50:19;;;;;;;10.30;7.43;;;5.90;99.90;;;;;;5127687;27;20096;-67
2022/01/24 02:52:45;;;;;;;11.30;7.72;;;5.90;99.90;;;;;;5137492;27;20054;-65
2022/01/24 02:55:11;;;;;;;11.65;8.32;;;6.00;99.90;;;;;;5155660;27;20038;-65
2022/01/24 02:57:36;;;;;;;10.60;7.65;;;6.00;99.90;;;;;;5137697;27;20077;-65
2022/01/24 03:00:03;;;;;;;11.75;8.15;;;6.00;99.90;;;;;;5145504;27;20031;-66
2022/01/24 03:02:29;;;;;;;11.30;8.30;;;6.00;99.90;;;;;;5134994;27;20035;-65
2022/01/24 03:04:56;;;;;;;13.15;8.95;;;6.10;99.90;;;;;;5117225;27;20471;-65
2022/01/24 03:07:22;;;;;;;11.32;8.10;;;6.10;99.90;;;;;;5117201;27;20114;-65
2022/01/24 03:09:49;;;;;;;10.77;7.70;;;6.10;99.90;;;;;;5142120;27;20470;-67
2022/01/24 03:12:26;;;;;;;13.00;8.45;;;6.20;99.90;;;;;;5155808;27;20130;-66
2022/01/24 03:14:51;;;;;;;13.02;8.85;;;6.20;99.90;;;;;;5155886;27;20031;-65
2022/01/24 03:17:17;;;;;;;10.63;8.27;;;6.20;99.90;;;;;;5154876;27;20360;-65
2022/01/24 03:19:42;;;;;;;12.27;8.90;;;6.20;99.90;;;;;;5149210;27;20071;-67
2022/01/24 03:22:11;;;;;;;11.60;8.35;;;6.30;99.90;;;;;;5116519;27;20444;-65
2022/01/24 03:24:36;;;;;;;11.93;8.30;;;6.20;99.90;;;;;;5135013;27;20035;-65
2022/01/24 03:27:02;;;;;;;11.90;8.52;;;6.20;99.90;;;;;;5116552;27;20459;-64
2022/01/24 03:29:28;;;;;;;12.73;8.75;;;6.20;99.90;;;;;;5138579;27;20078;-68
2022/01/24 03:31:54;;;;;;;12.52;8.65;;;6.20;99.90;;;;;;5120348;27;20046;-65
2022/01/24 03:34:19;;;;;;;12.63;8.90;;;6.20;99.90;;;;;;5155760;27;20049;-65
2022/01/24 03:36:45;;;;;;;13.43;8.63;;;6.30;99.90;;;;;;5155100;27;20476;-66
2022/01/24 03:39:11;;;;;;;14.10;9.63;;;6.30;99.90;;;;;;5153871;27;20130;-66
2022/01/24 03:41:39;;;;;;;11.57;8.60;;;6.30;99.90;;;;;;5117071;28;20039;-65
2022/01/24 03:44:06;;;;;;;12.88;9.45;;;6.30;99.90;;;;;;5134780;27;20054;-67
2022/01/24 03:46:48;;;;;;;12.48;9.10;;;6.30;99.90;;;;;;5134060;27;20035;-66
2022/01/24 03:51:58;;;;;;;19.25;11.10;;;6.30;99.90;;;;;;5155271;27;20427;-66
2022/01/24 03:54:24;;;;;;;16.65;11.27;;;6.40;99.90;;;;;;5155470;27;20119;-66
2022/01/24 03:56:50;;;;;;;15.95;11.57;;;6.30;99.90;;;;;;5155197;27;20060;-64
2022/01/24 03:59:15;;;;;;;18.15;11.82;;;6.30;99.90;;;;;;5152747;27;20081;-66
2022/01/24 04:01:41;;;;;;;14.90;10.95;;;6.30;99.90;;;;;;5134313;28;20031;-65
2022/01/24 04:04:07;;;;;;;17.38;11.70;;;6.30;99.90;;;;;;5134449;28;20548;-66
2022/01/24 04:06:34;;;;;;;15.95;10.60;;;6.30;99.90;;;;;;5134329;27;20039;-65
2022/01/24 04:08:59;;;;;;;15.27;10.48;;;6.30;99.90;;;;;;5134604;27;20118;-65
2022/01/24 04:11:32;;;;;;;13.98;10.20;;;6.20;99.90;;;;;;5157330;27;20110;-65
2022/01/24 04:14:10;;;;;;;15.18;10.23;;;6.30;99.90;;;;;;5159452;27;20074;-64
2022/01/24 04:16:40;;;;;;;14.15;9.88;;;6.40;99.90;;;;;;5158667;27;20099;-66
2022/01/24 04:21:50;;;;;;;14.68;10.27;;;6.30;99.90;;;;;;5120657;27;20086;-67
2022/01/24 04:24:21;;;;;;;13.82;9.85;;;6.30;99.90;;;;;;5138695;27;20421;-66
2022/01/24 04:26:46;;;;;;;14.63;10.00;;;6.20;99.90;;;;;;5137961;27;20046;-67
2022/01/24 04:29:12;;;;;;;13.85;9.82;;;6.20;99.90;;;;;;5139452;27;20146;-65
2022/01/24 04:31:38;;;;;;;15.00;9.95;;;6.30;99.90;;;;;;5158419;27;20366;-65
2022/01/24 04:34:04;;;;;;;13.60;9.65;;;6.20;99.90;;;;;;5158782;27;20039;-67
2022/01/24 04:36:30;;;;;;;14.15;9.77;;;6.20;99.90;;;;;;5158421;27;20027;-66
2022/01/24 04:38:56;;;;;;;12.32;9.30;;;6.20;99.90;;;;;;5122994;27;20469;-66
2022/01/24 04:41:33;;;;;;;13.40;9.55;;;6.20;99.90;;;;;;5120620;27;20035;-65
2022/01/24 04:44:18;;;;;;;12.15;9.20;;;6.20;99.90;;;;;;5137572;27;20456;-65
2022/01/24 04:54:45;;;;;;;13.43;9.82;;;6.20;99.90;;;;;;5137488;27;19915;-65
2022/01/24 04:57:16;;;;;;;14.65;9.43;;;6.20;99.90;;;;;;5137636;27;20065;-66
2022/01/24 04:59:46;;;;;;;15.55;10.40;;;6.20;99.90;;;;;;5142895;27;20715;-64
2022/01/24 05:02:13;;;;;;;15.32;11.00;;;6.20;99.90;;;;;;5158130;27;20511;-65
2022/01/24 05:04:38;;;;;;;15.65;10.82;;;6.20;99.90;;;;;;5140067;27;20053;-65
2022/01/24 05:07:04;;;;;;;15.90;11.18;;;6.10;99.90;;;;;;5158040;27;20346;-66
2022/01/24 05:09:35;;;;;;;15.90;10.77;;;6.10;99.90;;;;;;5154273;27;20096;-66
2022/01/24 05:12:16;;;;;;;15.65;10.70;;;6.20;99.90;;;;;;5137551;27;20104;-66
2022/01/24 05:25:39;;;;;;;15.68;11.30;;;6.00;99.90;;;;;;5157449;27;20363;-66
2022/01/24 05:28:04;;;;;;;17.80;12.02;;;6.00;99.90;;;;;;5157589;27;20120;-66
2022/01/24 05:30:30;;;;;;;17.90;12.55;;;6.00;99.90;;;;;;5145559;27;20039;-66
2022/01/24 05:32:56;;;;;;;18.83;12.57;;;6.10;99.90;;;;;;5136948;27;20043;-64
2022/01/24 05:35:23;;;;;;;20.73;13.32;;;6.00;99.90;;;;;;5136473;27;20139;-66
2022/01/24 05:37:48;;;;;;;22.73;14.43;;;6.00;99.90;;;;;;5118607;27;20352;-66
2022/01/24 05:40:14;;;;;;;23.23;14.93;;;6.00;99.90;;;;;;5127894;27;20027;-66
2022/01/24 05:42:40;;;;;;;19.90;13.55;;;6.00;99.90;;;;;;5150181;27;20031;-65
2022/01/24 05:45:07;;;;;;;21.45;14.55;;;6.00;99.90;;;;;;5135444;27;20539;-68
2022/01/24 05:47:33;;;;;;;23.33;15.50;;;6.00;99.90;;;;;;5136027;27;20409;-66
2022/01/24 05:49:59;;;;;;;25.77;17.02;;;6.00;99.90;;;;;;5137097;27;20034;-68
2022/01/24 05:52:25;;;;;;;25.65;16.63;;;6.00;99.90;;;;;;5135705;27;20470;-65
2022/01/24 05:54:50;;;;;;;23.13;16.08;;;6.00;99.90;;;;;;5135864;27;20035;-66
2022/01/24 05:57:16;;;;;;;29.35;18.88;;;6.00;99.90;;;;;;5135866;27;20049;-66
2022/01/24 05:59:42;;;;;;;33.40;19.80;;;6.00;99.90;;;;;;5136626;27;20035;-64
2022/01/24 06:02:07;;;;;;;34.08;20.65;;;6.00;99.90;;;;;;5136808;27;20031;-65
2022/01/24 06:04:33;;;;;;;32.30;20.45;;;6.00;99.90;;;;;;5135692;27;20050;-65
2022/01/24 06:06:59;;;;;;;30.38;20.10;;;6.00;99.90;;;;;;5152829;27;20035;-66
2022/01/24 06:09:24;;;;;;;38.28;21.35;;;6.00;99.90;;;;;;5155588;27;20486;-65
2022/01/24 06:11:51;;;;;;;31.77;20.00;;;6.00;99.90;;;;;;5138661;27;20078;-65
2022/01/24 06:14:17;;;;;;;33.88;21.23;;;6.00;99.90;;;;;;5156388;27;20035;-65
2022/01/24 06:16:43;;;;;;;32.35;20.33;;;6.00;99.90;;;;;;5155930;27;20090;-65
2022/01/24 06:19:09;;;;;;;34.72;22.05;;;6.00;99.90;;;;;;5156091;27;20042;-65
2022/01/24 06:21:35;;;;;;;32.80;22.63;;;5.90;99.90;;;;;;5155644;27;20039;-65
2022/01/24 06:24:00;;;;;;;34.78;22.23;;;5.90;99.90;;;;;;5156615;27;20121;-64
2022/01/24 06:26:26;;;;;;;33.75;21.60;;;5.90;99.90;;;;;;5155635;27;20129;-67
2022/01/24 06:28:52;;;;;;;36.67;22.30;;;5.90;99.90;;;;;;5156424;27;20418;-64
2022/01/24 06:31:19;;;;;;;32.80;20.80;;;5.90;99.90;;;;;;5155115;27;20035;-66
2022/01/24 06:33:45;;;;;;;34.28;22.92;;;6.00;99.90;;;;;;5155607;27;20113;-64
2022/01/24 06:36:11;;;;;;;38.00;24.13;;;6.00;99.90;;;;;;5137980;27;20148;-64
2022/01/24 06:38:36;;;;;;;36.95;24.42;;;5.90;99.90;;;;;;5156237;27;20114;-66
2022/01/24 06:41:02;;;;;;;37.42;23.83;;;5.90;99.90;;;;;;5155525;27;20647;-65
2022/01/24 06:43:28;;;;;;;42.55;26.90;;;5.90;99.90;;;;;;5156349;27;20033;-65
2022/01/24 06:45:54;;;;;;;38.92;26.52;;;5.90;99.90;;;;;;5155780;27;20588;-64
2022/01/24 06:48:19;;;;;;;41.90;27.80;;;5.90;99.90;;;;;;5155565;27;20455;-68
2022/01/24 06:50:45;;;;;;;40.97;27.70;;;5.90;99.90;;;;;;5154887;27;20030;-69
2022/01/24 06:53:11;;;;;;;41.05;28.20;;;5.90;99.90;;;;;;5155616;27;20038;-68
2022/01/24 06:55:36;;;;;;;42.85;28.00;;;5.90;99.90;;;;;;5155676;27;20554;-68
2022/01/24 06:58:02;;;;;;;42.70;28.58;;;5.90;99.90;;;;;;5154645;27;20475;-64
2022/01/24 07:00:30;;;;;;;39.83;28.25;;;5.90;99.90;;;;;;5119597;27;20126;-64
2022/01/24 07:02:57;;;;;;;43.40;28.95;;;5.90;99.90;;;;;;5149877;27;20126;-63
2022/01/24 07:05:24;;;;;;;43.65;29.58;;;5.90;99.90;;;;;;5155847;27;20125;-64
2022/01/24 07:07:50;;;;;;;43.63;30.75;;;5.90;99.90;;;;;;5148699;27;20095;-67
2022/01/24 07:10:16;;;;;;;43.47;30.77;;;5.90;99.90;;;;;;5116025;27;20043;-68
2022/01/24 07:12:41;;;;;;;44.15;30.33;;;5.90;99.90;;;;;;5133742;27;20039;-65
2022/01/24 07:15:12;;;;;;;46.78;31.85;;;5.90;99.90;;;;;;5133193;27;20043;-66
2022/01/24 07:20:22;;;;;;;43.90;31.30;;;5.90;99.90;;;;;;5143907;27;20054;-65
2022/01/24 07:22:47;;;;;;;43.45;31.05;;;5.90;99.90;;;;;;5137066;27;20043;-67
2022/01/24 07:25:13;;;;;;;45.58;29.63;;;5.90;99.90;;;;;;5150822;27;20066;-66
2022/01/24 07:27:39;;;;;;;33.03;23.55;;;5.90;99.90;;;;;;5116105;27;20467;-65
2022/01/24 07:30:05;;;;;;;33.38;22.02;;;5.90;99.90;;;;;;5141866;27;20034;-65
2022/01/24 07:32:31;;;;;;;35.67;24.65;;;5.90;99.90;;;;;;5154990;27;20506;-66
2022/01/24 07:34:58;;;;;;;37.40;25.77;;;5.90;99.90;;;;;;5140225;27;20068;-65
2022/01/24 07:37:24;;;;;;;39.13;27.25;;;6.00;99.90;;;;;;5134289;27;20083;-65
2022/01/24 07:39:52;;;;;;;39.97;27.85;;;6.00;99.90;;;;;;5139571;27;20050;-65
2022/01/24 07:42:28;;;;;;;41.92;29.60;;;6.00;99.90;;;;;;5155145;27;20102;-67
2022/01/24 07:44:54;;;;;;;44.13;31.00;;;6.10;99.90;;;;;;5156503;27;20121;-65
2022/01/24 07:47:20;;;;;;;41.80;30.48;;;6.00;99.90;;;;;;5161953;27;20162;-65
2022/01/24 07:49:46;;;;;;;40.45;29.25;;;6.10;99.90;;;;;;5157647;27;20114;-65
2022/01/24 07:52:11;;;;;;;43.30;29.50;;;6.10;99.90;;;;;;5158135;27;20042;-66
2022/01/24 07:54:37;;;;;;;44.88;29.35;;;6.00;99.90;;;;;;5162194;27;20439;-66
2022/01/24 07:57:03;;;;;;;41.65;28.00;;;6.10;99.90;;;;;;5161517;27;20099;-65
2022/01/24 07:59:29;;;;;;;43.03;29.90;;;6.10;99.90;;;;;;5142600;27;20027;-66
2022/01/24 08:01:54;;;;;;;44.95;29.92;;;6.10;99.90;;;;;;5162112;27;20099;-66
2022/01/24 08:04:20;;;;;;;44.22;30.42;;;6.00;99.90;;;;;;5162303;27;20035;-65
2022/01/24 08:06:47;;;;;;;41.15;29.23;;;6.00;99.90;;;;;;5162064;27;20039;-66
2022/01/24 08:09:13;;;;;;;43.88;29.73;;;6.10;99.90;;;;;;5161704;27;20049;-67
2022/01/24 08:11:39;;;;;;;43.40;28.73;;;6.10;99.90;;;;;;5161622;27;20034;-66
2022/01/24 08:14:05;;;;;;;41.97;29.30;;;6.00;99.90;;;;;;5143421;27;20042;-66
2022/01/24 08:16:31;;;;;;;43.67;29.33;;;6.00;99.90;;;;;;5143260;27;20117;-65
2022/01/24 08:19:00;;;;;;;45.10;30.25;;;6.00;99.90;;;;;;5142241;27;20142;-64
2022/01/24 08:21:26;;;;;;;44.63;30.65;;;6.00;99.90;;;;;;5158926;27;20459;-65
2022/01/24 08:23:52;;;;;;;45.55;29.73;;;6.00;99.90;;;;;;5161807;27;20039;-64
2022/01/24 08:26:18;;;;;;;44.30;29.52;;;6.00;99.90;;;;;;5162021;27;20038;-65
2022/01/24 08:28:43;;;;;;;42.53;29.63;;;6.00;99.90;;;;;;5161431;27;20039;-66
2022/01/24 08:31:09;;;;;;;40.72;28.70;;;6.00;99.90;;;;;;5145396;27;20119;-65
2022/01/24 08:33:35;;;;;;;36.92;26.02;;;6.00;99.90;;;;;;5122592;27;20050;-64
2022/01/24 08:36:01;;;;;;;41.97;27.08;;;6.00;99.90;;;;;;5141196;27;20043;-66
2022/01/24 08:38:27;;;;;;;39.25;26.38;;;6.00;99.90;;;;;;5140333;27;20126;-64
2022/01/24 08:40:58;;;;;;;38.83;27.27;;;6.10;99.90;;;;;;5154274;27;20039;-64
2022/01/24 08:43:38;;;;;;;39.40;26.17;;;6.10;99.90;;;;;;5143336;27;20431;-64
2022/01/24 08:46:05;;;;;;;40.95;25.70;;;6.10;99.90;;;;;;5161659;27;20110;-64
2022/01/24 08:48:31;;;;;;;38.83;26.40;;;6.10;99.90;;;;;;5160870;27;20379;-66
2022/01/24 08:50:59;;;;;;;37.85;25.40;;;6.10;99.90;;;;;;5129003;27;20338;-65
2022/01/24 08:53:31;;;;;;;38.17;26.45;;;6.10;99.90;;;;;;5122817;27;20050;-66
2022/01/24 08:55:58;;;;;;;40.63;26.67;;;6.10;99.90;;;;;;5122813;27;20086;-65
2022/01/24 08:58:24;;;;;;;39.03;26.58;;;6.10;99.90;;;;;;5137040;27;20050;-65
2022/01/24 09:00:50;;;;;;;38.45;27.38;;;6.10;99.90;;;;;;5150064;27;20067;-65
2022/01/24 09:03:16;;;;;;;38.53;26.60;;;6.10;99.90;;;;;;5140047;27;20070;-65
2022/01/24 09:05:42;;;;;;;39.88;26.63;;;6.10;99.90;;;;;;5158247;27;20043;-66
2022/01/24 09:08:09;;;;;;;40.15;27.02;;;6.10;99.90;;;;;;5157854;27;20080;-67
2022/01/24 09:10:39;;;;;;;40.88;27.13;;;6.10;99.90;;;;;;5147067;27;20070;-65
2022/01/24 09:13:05;;;;;;;37.90;27.55;;;6.10;99.90;;;;;;5119118;27;20077;-65
2022/01/24 09:15:31;;;;;;;40.05;27.67;;;6.10;99.90;;;;;;5118185;27;20046;-66
2022/01/24 09:17:56;;;;;;;39.53;26.52;;;6.20;99.90;;;;;;5136406;27;20047;-64
2022/01/24 09:20:22;;;;;;;39.42;26.30;;;6.20;99.90;;;;;;5145800;27;20473;-64
2022/01/24 09:22:49;;;;;;;41.35;28.17;;;6.20;99.90;;;;;;5158062;27;20030;-65
2022/01/24 09:25:19;;;;;;;41.63;28.15;;;6.20;99.90;;;;;;5150685;27;20031;-67
2022/01/24 09:27:46;;;;;;;42.58;28.55;;;6.20;99.90;;;;;;5136547;27;20062;-66
2022/01/24 09:30:13;;;;;;;40.63;26.67;;;6.20;99.90;;;;;;5143693;27;20517;-67
2022/01/24 09:32:40;;;;;;;37.42;27.10;;;6.20;99.90;;;;;;5138791;27;20532;-65
2022/01/24 09:35:08;;;;;;;36.63;25.77;;;6.20;99.90;;;;;;5157547;27;20072;-65
2022/01/24 09:37:34;;;;;;;39.40;26.67;;;6.30;99.90;;;;;;5139025;27;20050;-65
2022/01/24 09:40:00;;;;;;;37.53;25.23;;;6.20;99.90;;;;;;5154796;27;20338;-65
2022/01/24 09:42:26;;;;;;;42.38;28.70;;;6.20;99.90;;;;;;5157350;27;20034;-65
2022/01/24 09:44:52;;;;;;;40.70;26.42;;;6.20;99.90;;;;;;5157375;27;20034;-67
2022/01/24 09:47:18;;;;;;;41.42;27.50;;;6.20;99.90;;;;;;5156671;27;20043;-65
2022/01/24 09:49:46;;;;;;;38.63;26.90;;;6.20;99.90;;;;;;5135204;27;20042;-67
2022/01/24 09:52:11;;;;;;;42.25;27.23;;;6.20;99.90;;;;;;5136259;27;20035;-65
2022/01/24 09:54:37;;;;;;;40.58;28.90;;;6.20;99.90;;;;;;5118410;27;20042;-66
2022/01/24 09:57:03;;;;;;;45.08;28.95;;;6.10;99.90;;;;;;5117974;27;20130;-65
2022/01/24 09:59:29;;;;;;;43.67;28.98;;;6.10;99.90;;;;;;5136565;27;20413;-67
2022/01/24 10:01:55;;;;;;;41.97;29.55;;;6.10;99.90;;;;;;5156957;27;20046;-66
2022/01/24 10:04:25;;;;;;;41.10;28.90;;;6.10;99.90;;;;;;5138127;27;20031;-66
2022/01/24 10:07:15;;;;;;;42.50;28.80;;;6.10;99.90;;;;;;5154999;27;20091;-66
2022/01/24 10:09:42;;;;;;;40.72;27.08;;;6.10;99.90;;;;;;5155212;27;20087;-65
2022/01/24 10:17:36;;;;;;;32.95;23.40;;;6.10;99.90;;;;;;5137561;27;20054;-66
2022/01/24 10:20:36;;;;;;;34.83;24.55;;;6.00;99.90;;;;;;5132260;27;20353;-66
2022/01/24 10:23:10;;;;;;;30.60;21.50;;;6.00;99.90;;;;;;5099043;27;20054;-65
2022/01/24 10:25:50;;;;;;;29.27;21.25;;;6.10;99.90;;;;;;5127607;27;20045;-65
2022/01/24 10:28:24;;;;;;;25.13;20.40;;;6.00;99.90;;;;;;5152805;27;20039;-65
2022/01/24 10:31:00;;;;;;;28.33;20.10;;;6.10;99.90;;;;;;5143239;27;20087;-64
2022/01/24 10:33:26;;;;;;;27.45;19.70;;;6.10;99.90;;;;;;5147807;27;20146;-65
2022/01/24 10:35:52;;;;;;;25.27;20.15;;;6.10;99.90;;;;;;5135310;27;20117;-64
2022/01/24 10:43:56;;;;;;;24.52;18.27;;;6.10;99.90;;;;;;5117340;27;20064;-65
2022/01/24 10:46:26;;;;;;;24.10;18.85;;;6.10;99.90;;;;;;5156176;27;20023;-65
2022/01/24 10:49:06;;;;;;;24.75;19.42;;;6.10;99.90;;;;;;5156096;27;20138;-67
2022/01/24 10:51:44;;;;;;;21.88;17.45;;;6.10;99.90;;;;;;5129691;27;20053;-67
2022/01/24 10:54:14;;;;;;;23.83;17.42;;;6.20;99.90;;;;;;5134342;27;20031;-63
2022/01/24 10:56:44;;;;;;;21.83;17.95;;;6.10;99.90;;;;;;5155936;27;20047;-65
2022/01/24 10:59:17;;;;;;;22.40;17.33;;;6.20;99.90;;;;;;5155618;27;20039;-65
2022/01/24 11:01:54;;;;;;;23.42;18.17;;;6.10;99.90;;;;;;5136254;27;20057;-67
2022/01/24 11:04:21;;;;;;;23.13;17.92;;;6.10;99.90;;;;;;5136701;27;20042;-66
2022/01/24 11:06:54;;;;;;;22.60;18.10;;;6.20;99.90;;;;;;5155085;27;20095;-66
2022/01/24 11:09:24;;;;;;;24.17;18.17;;;6.20;99.90;;;;;;5117107;27;20047;-65
2022/01/24 11:11:59;;;;;;;22.60;19.00;;;6.20;99.90;;;;;;5117590;27;20471;-65
2022/01/24 11:14:31;;;;;;;24.40;19.88;;;6.20;99.90;;;;;;5144134;27;20110;-65
2022/01/24 11:16:58;;;;;;;24.50;19.85;;;6.20;99.90;;;;;;5135743;27;20035;-65
2022/01/24 11:19:34;;;;;;;27.30;21.20;;;6.20;99.90;;;;;;5133828;27;20055;-66
2022/01/24 11:22:04;;;;;;;23.98;19.40;;;6.20;99.90;;;;;;5134642;27;20035;-65
2022/01/24 11:25:06;;;;;;;23.75;18.85;;;6.20;99.90;;;;;;5134052;27;20428;-66
2022/01/24 11:27:22;;;;;;;22.90;19.13;;;6.20;99.90;;;;;;5134067;27;20107;-66
2022/01/24 11:29:51;;;;;;;22.65;17.42;;;6.20;99.90;;;;;;5118491;27;20051;-65
2022/01/24 11:32:33;;;;;;;21.42;17.63;;;6.20;99.90;;;;;;5133128;27;20311;-65
2022/01/24 11:34:59;;;;;;;23.40;18.77;;;6.20;99.90;;;;;;5133961;27;20096;-65
2022/01/24 11:37:45;;;;;;;24.88;19.73;;;6.20;99.90;;;;;;5122688;27;20544;-66
2022/01/24 11:40:17;;;;;;;23.85;20.08;;;6.20;99.90;;;;;;5153529;27;20037;-65
2022/01/24 11:42:52;;;;;;;22.70;19.52;;;6.20;99.90;;;;;;5137018;27;20039;-65
2022/01/24 11:45:59;;;;;;;23.88;19.67;;;6.30;99.90;;;;;;5135885;27;20371;-66
2022/01/24 11:48:24;;;;;;;24.42;19.55;;;6.30;99.90;;;;;;5146787;27;20074;-65
2022/01/24 11:51:06;;;;;;;24.95;18.58;;;6.40;99.90;;;;;;5143292;27;20403;-65
2022/01/24 11:53:37;;;;;;;22.98;18.70;;;6.50;99.90;;;;;;5116172;28;20054;-66
2022/01/24 11:56:27;;;;;;;22.88;18.80;;;6.40;99.90;;;;;;5133711;28;20137;-66
2022/01/24 11:59:20;;;;;;;20.10;17.95;;;6.30;99.90;;;;;;5134023;28;20428;-65
2022/01/24 12:01:52;;;;;;;24.10;19.73;;;6.40;99.90;;;;;;5153532;27;20054;-66
2022/01/24 12:04:53;;;;;;;23.83;20.08;;;6.30;99.90;;;;;;5154953;27;20518;-65
2022/01/24 12:07:31;;;;;;;23.10;19.55;;;6.30;99.90;;;;;;5155161;27;20092;-66
2022/01/24 12:10:26;;;;;;;22.40;18.85;;;6.30;99.90;;;;;;5150587;27;20127;-66
2022/01/24 12:13:03;;;;;;;22.25;19.30;;;6.30;99.90;;;;;;5132964;27;20103;-66
2022/01/24 12:15:40;;;;;;;24.73;19.23;;;6.30;99.90;;;;;;5136096;27;20047;-67
2022/01/24 12:18:10;;;;;;;23.23;19.30;;;6.30;99.90;;;;;;5136171;27;20142;-68
2022/01/24 12:20:44;;;;;;;19.77;17.38;;;6.20;99.90;;;;;;5110059;28;20035;-67
2022/01/24 12:23:19;;;;;;;20.50;17.97;;;6.20;99.90;;;;;;5115971;28;20070;-67
2022/01/24 12:26:02;;;;;;;22.90;19.15;;;6.20;99.90;;;;;;5126736;27;20775;-66
2022/01/24 12:28:34;;;;;;;19.98;17.73;;;6.20;99.90;;;;;;5154890;27;20042;-65
2022/01/24 12:31:05;;;;;;;23.08;19.48;;;6.20;99.90;;;;;;5141460;27;20046;-66
2022/01/24 12:33:43;;;;;;;23.52;20.05;;;6.20;99.90;;;;;;5138011;27;20513;-66
2022/01/24 12:36:14;;;;;;;22.60;19.10;;;6.30;99.90;;;;;;5119657;27;20054;-66
2022/01/24 12:38:43;;;;;;;21.88;19.00;;;6.30;99.90;;;;;;5119562;27;20079;-66
2022/01/24 12:41:25;;;;;;;24.92;19.63;;;6.30;99.90;;;;;;5151352;27;20372;-67
2022/01/24 12:43:56;;;;;;;21.77;18.48;;;6.30;99.90;;;;;;5140267;27;20475;-66
2022/01/24 12:46:25;;;;;;;25.95;20.60;;;6.20;99.90;;;;;;5139801;27;20054;-66
2022/01/24 12:48:52;;;;;;;24.17;19.98;;;6.30;99.90;;;;;;5140282;27;20038;-66
2022/01/24 12:51:21;;;;;;;23.70;19.42;;;6.30;99.90;;;;;;5148496;27;20049;-65
2022/01/24 12:53:49;;;;;;;24.52;20.10;;;6.30;99.90;;;;;;5137302;27;20039;-67
2022/01/24 12:56:18;;;;;;;26.30;22.75;;;6.30;99.90;;;;;;5119028;27;20127;-66
2022/01/24 12:58:48;;;;;;;21.20;18.88;;;6.40;99.90;;;;;;5137519;27;20050;-66
2022/01/24 13:01:31;;;;;;;22.27;18.25;;;6.30;99.90;;;;;;5151532;27;20035;-66
2022/01/24 13:04:07;;;;;;;23.30;19.23;;;6.20;99.90;;;;;;5139920;27;20030;-67
2022/01/24 13:06:35;;;;;;;21.98;19.25;;;6.20;99.90;;;;;;5157735;27;20451;-66
2022/01/24 13:09:15;;;;;;;23.65;20.27;;;6.20;99.90;;;;;;5157976;27;20415;-66
2022/01/24 13:11:53;;;;;;;23.27;19.95;;;6.30;99.90;;;;;;5127947;27;20046;-66
2022/01/24 13:22:36;;;;;;;24.08;20.05;;;6.30;99.90;;;;;;5118753;27;20383;-66
2022/01/24 13:25:07;;;;;;;22.67;19.40;;;6.20;99.90;;;;;;5123986;27;20035;-66
2022/01/24 13:27:35;;;;;;;24.30;19.88;;;6.20;99.90;;;;;;5157630;27;20039;-67
2022/01/24 13:30:01;;;;;;;25.60;21.88;;;6.20;99.90;;;;;;5153655;27;20037;-66
2022/01/24 13:32:57;;;;;;;25.42;20.52;;;6.30;99.90;;;;;;5118526;27;20519;-66
2022/01/24 13:35:26;;;;;;;26.30;21.48;;;6.30;99.90;;;;;;5118221;27;20524;-65
2022/01/24 13:38:18;;;;;;;26.80;21.65;;;6.30;99.90;;;;;;5136924;27;20039;-66
2022/01/24 13:41:07;;;;;;;24.60;20.70;;;6.30;99.90;;;;;;5135143;27;20054;-66
2022/01/24 13:43:45;;;;;;;25.60;21.13;;;6.40;99.90;;;;;;5156785;27;20106;-66
2022/01/24 13:46:16;;;;;;;24.33;20.17;;;6.40;99.90;;;;;;5153053;27;20035;-66
2022/01/24 13:48:48;;;;;;;24.30;20.02;;;6.50;99.90;;;;;;5139327;27;20042;-66
2022/01/24 13:51:33;;;;;;;24.75;20.73;;;6.40;99.90;;;;;;5155942;27;20065;-65
2022/01/24 13:54:00;;;;;;;27.63;21.73;;;6.40;99.90;;;;;;5156893;27;20399;-65
2022/01/24 13:56:33;;;;;;;24.13;19.40;;;6.30;99.90;;;;;;5156546;27;20439;-65
2022/01/24 13:59:23;;;;;;;25.75;21.75;;;6.20;99.90;;;;;;5156952;27;20049;-66
2022/01/24 14:01:59;;;;;;;25.63;19.45;;;6.20;99.90;;;;;;5156091;27;20038;-65
2022/01/24 14:04:52;;;;;;;25.13;19.95;;;6.20;99.90;;;;;;5138892;27;20065;-64
2022/01/24 14:07:34;;;;;;;26.17;21.08;;;6.30;99.90;;;;;;5157006;27;20065;-64
2022/01/24 14:10:03;;;;;;;26.73;21.67;;;6.20;99.90;;;;;;5117990;27;20391;-65
2022/01/24 14:20:44;;;;;;;26.45;21.92;;;6.20;99.90;;;;;;5126344;27;20071;-65
2022/01/24 14:23:39;;;;;;;29.73;22.67;;;6.20;99.90;;;;;;5115233;28;20031;-66
2022/01/24 14:26:20;;;;;;;26.88;21.65;;;6.10;99.90;;;;;;5115806;27;20649;-65
2022/01/24 14:28:48;;;;;;;28.80;21.52;;;6.10;99.90;;;;;;5135380;27;20035;-65
2022/01/24 14:31:15;;;;;;;28.13;21.92;;;6.10;99.90;;;;;;5121550;27;20412;-65
2022/01/24 14:33:43;;;;;;;26.23;21.45;;;6.10;99.90;;;;;;5114893;28;20043;-64
2022/01/24 14:36:17;;;;;;;26.48;20.65;;;6.10;99.90;;;;;;5114711;28;20036;-66
2022/01/24 14:38:48;;;;;;;29.10;21.10;;;6.10;99.90;;;;;;5096711;28;20039;-64
2022/01/24 14:41:49;;;;;;;27.88;21.73;;;6.10;99.90;;;;;;5127941;27;20326;-64
2022/01/24 14:47:03;;;;;;;24.55;20.20;;;6.10;99.90;;;;;;5117005;27;20131;-65
2022/01/24 14:49:35;;;;;;;26.55;20.20;;;6.10;99.90;;;;;;5135458;27;20043;-65
2022/01/24 14:52:09;;;;;;;28.02;22.33;;;6.10;99.90;;;;;;5115322;27;20039;-66
2022/01/24 14:54:36;;;;;;;27.20;20.77;;;6.00;99.90;;;;;;5114037;28;20043;-65
2022/01/24 14:57:04;;;;;;;23.73;19.92;;;6.00;99.90;;;;;;5114615;28;20035;-65
2022/01/24 14:59:31;;;;;;;26.00;21.30;;;6.00;99.90;;;;;;5114561;28;20035;-65
2022/01/24 15:01:57;;;;;;;27.25;21.88;;;6.00;99.90;;;;;;5098348;27;20050;-66